createdAt,value
2018-03-06T00:00:48.887Z,42.47
2018-03-06T00:03:16.681Z,43.40
2018-03-06T00:05:44.583Z,43.20
2018-03-06T00:08:12.158Z,45.35
2018-03-06T00:10:40.449Z,42.60
2018-03-06T00:13:08.352Z,40.15
2018-03-06T00:15:36.888Z,41.95
2018-03-06T00:18:04.407Z,43.15
2018-03-06T00:20:32.741Z,44.58
2018-03-06T00:23:00.261Z,44.42
2018-03-06T00:25:28.569Z,43.67
2018-03-06T00:27:56.093Z,44.25
2018-03-06T00:30:24.368Z,47.97
2018-03-06T00:32:52.668Z,48.25
2018-03-06T00:35:20.185Z,47.88
2018-03-06T00:37:47.736Z,47.20
2018-03-06T00:40:15.257Z,47.62
2018-03-06T00:42:42.817Z,45.70
2018-03-06T00:45:10.336Z,47.33
2018-03-06T00:47:38.619Z,47.58
2018-03-06T00:50:07.515Z,51.10
2018-03-06T00:52:35.805Z,51.22
2018-03-06T00:55:03.346Z,53.40
2018-03-06T00:57:31.166Z,51.00
2018-03-06T00:59:59.472Z,50.42
2018-03-06T01:02:27.037Z,54.72
2018-03-06T01:04:56.339Z,47.50
2018-03-06T01:07:25.399Z,50.70
2018-03-06T01:09:52.912Z,48.13
2018-03-06T01:12:20.460Z,49.90
2018-03-06T01:14:47.983Z,49.83
2018-03-06T01:17:15.517Z,48.55
2018-03-06T01:19:43.042Z,49.38
2018-03-06T01:22:11.685Z,49.13
2018-03-06T01:24:40.213Z,49.92
2018-03-06T01:27:08.584Z,49.45
2018-03-06T01:29:36.561Z,49.85
2018-03-06T01:32:04.864Z,50.80
2018-03-06T01:34:32.405Z,52.05
2018-03-06T01:37:00.692Z,55.30
2018-03-06T01:39:28.971Z,49.72
2018-03-06T01:41:57.298Z,53.20
2018-03-06T01:44:28.577Z,51.97
2018-03-06T01:46:56.110Z,51.78
2018-03-06T01:49:24.837Z,51.53
2018-03-06T01:52:02.443Z,54.33
2018-03-06T01:54:30.723Z,52.53
2018-03-06T01:56:58.934Z,51.47
2018-03-06T01:59:26.564Z,51.45
2018-03-06T02:01:54.861Z,51.40
2018-03-06T02:04:23.766Z,53.00
2018-03-06T02:06:51.285Z,55.08
2018-03-06T02:09:19.686Z,54.92
2018-03-06T02:11:47.615Z,54.80
2018-03-06T02:14:15.196Z,52.00
2018-03-06T02:16:42.685Z,57.25
2018-03-06T02:19:10.232Z,51.47
2018-03-06T02:21:38.509Z,54.90
2018-03-06T02:24:06.400Z,54.30
2018-03-06T02:26:36.062Z,53.17
2018-03-06T02:29:05.312Z,53.97
2018-03-06T02:34:04.589Z,57.65
2018-03-06T02:36:33.198Z,55.28
2018-03-06T02:39:01.018Z,56.17
2018-03-06T02:41:29.111Z,54.03
2018-03-06T02:43:56.669Z,59.10
2018-03-06T02:46:25.722Z,58.13
2018-03-06T02:48:53.503Z,56.75
2018-03-06T02:51:21.025Z,57.70
2018-03-06T02:53:48.565Z,55.72
2018-03-06T02:56:16.371Z,57.58
2018-03-06T02:58:47.435Z,59.83
2018-03-06T03:01:14.952Z,56.22
2018-03-06T03:03:42.478Z,53.70
2018-03-06T03:06:10.781Z,55.42
2018-03-06T03:08:38.350Z,56.28
2018-03-06T03:11:06.368Z,56.28
2018-03-06T03:16:06.426Z,55.60
2018-03-06T03:18:35.434Z,54.22
2018-03-06T03:21:02.967Z,54.33
2018-03-06T03:23:30.517Z,56.70
2018-03-06T03:25:59.724Z,53.85
2018-03-06T03:28:27.260Z,55.58
2018-03-06T03:30:54.773Z,54.75
2018-03-06T03:33:27.579Z,57.97
2018-03-06T03:35:55.100Z,58.67
2018-03-06T03:38:23.729Z,55.15
2018-03-06T03:40:51.972Z,55.58
2018-03-06T03:43:20.253Z,55.42
2018-03-06T03:45:48.560Z,57.38
2018-03-06T03:48:16.844Z,56.40
2018-03-06T03:50:45.134Z,54.47
2018-03-06T03:53:12.673Z,53.00
2018-03-06T03:55:40.214Z,53.90
2018-03-06T03:58:07.749Z,53.83
2018-03-06T04:00:36.945Z,52.25
2018-03-06T04:03:04.512Z,55.25
2018-03-06T04:05:32.794Z,52.70
2018-03-06T04:08:02.104Z,56.58
2018-03-06T04:10:31.390Z,54.40
2018-03-06T04:12:59.700Z,55.67
2018-03-06T04:15:27.212Z,54.20
2018-03-06T04:17:54.728Z,52.70
2018-03-06T04:20:23.072Z,52.40
2018-03-06T04:22:51.353Z,55.63
2018-03-06T04:25:19.664Z,54.65
2018-03-06T04:27:47.196Z,52.35
2018-03-06T04:30:14.748Z,50.72
2018-03-06T04:32:43.024Z,56.05
2018-03-06T04:35:11.334Z,54.00
2018-03-06T04:37:38.851Z,52.53
2018-03-06T04:40:06.361Z,55.40
2018-03-06T04:42:33.892Z,51.05
2018-03-06T04:45:02.173Z,54.92
2018-03-06T04:47:29.708Z,53.35
2018-03-06T04:49:57.227Z,54.55
2018-03-06T04:52:24.760Z,54.55
2018-03-06T04:58:04.972Z,57.90
2018-03-06T05:00:32.483Z,53.17
2018-03-06T05:03:00.758Z,55.78
2018-03-06T05:05:29.871Z,58.33
2018-03-06T05:07:57.376Z,57.40
2018-03-06T05:10:24.899Z,58.83
2018-03-06T05:12:52.416Z,59.80
2018-03-06T05:15:19.947Z,57.62
2018-03-06T05:17:47.459Z,58.58
2018-03-06T05:20:15.735Z,61.00
2018-03-06T05:22:44.046Z,59.33
2018-03-06T05:25:11.579Z,57.50
2018-03-06T05:27:39.871Z,60.95
2018-03-06T05:30:07.460Z,55.88
2018-03-06T05:32:35.079Z,58.05
2018-03-06T05:35:02.640Z,60.45
2018-03-06T05:37:30.184Z,56.40
2018-03-06T05:39:58.456Z,55.88
2018-03-06T05:42:26.770Z,57.30
2018-03-06T05:44:54.271Z,58.15
2018-03-06T05:47:21.788Z,54.25
2018-03-06T05:49:49.311Z,57.00
2018-03-06T05:52:17.593Z,58.17
2018-03-06T05:54:45.132Z,57.25
2018-03-06T05:57:12.690Z,53.75
2018-03-06T05:59:40.280Z,55.97
2018-03-06T06:02:08.664Z,58.20
2018-03-06T06:04:37.228Z,58.70
2018-03-06T06:07:04.984Z,56.72
2018-03-06T06:09:33.527Z,62.45
2018-03-06T06:12:01.136Z,61.35
2018-03-06T06:14:29.516Z,55.88
2018-03-06T06:16:57.142Z,59.92
2018-03-06T06:19:24.652Z,55.00
2018-03-06T06:21:53.001Z,57.13
2018-03-06T06:24:20.499Z,58.40
2018-03-06T06:26:48.807Z,53.40
2018-03-06T06:29:16.442Z,54.65
2018-03-06T06:31:44.732Z,57.33
2018-03-06T06:34:12.276Z,53.85
2018-03-06T06:36:41.312Z,59.08
2018-03-06T06:39:08.847Z,53.92
2018-03-06T06:41:36.360Z,56.70
2018-03-06T06:44:03.890Z,58.28
2018-03-06T06:46:31.400Z,57.85
2018-03-06T06:48:58.916Z,57.15
2018-03-06T06:51:26.417Z,53.78
2018-03-06T06:53:53.928Z,56.15
2018-03-06T06:56:21.484Z,54.80
2018-03-06T06:58:48.985Z,54.88
2018-03-06T07:01:20.358Z,57.42
2018-03-06T07:03:48.641Z,57.90
2018-03-06T07:06:16.936Z,54.60
2018-03-06T07:08:44.453Z,53.63
2018-03-06T07:11:11.986Z,54.85
2018-03-06T07:13:40.653Z,53.55
2018-03-06T07:16:08.160Z,50.85
2018-03-06T07:18:35.681Z,51.92
2018-03-06T07:21:03.185Z,52.78
2018-03-06T07:23:31.389Z,50.28
2018-03-06T07:25:58.915Z,50.60
2018-03-06T07:28:26.445Z,50.10
2018-03-06T07:30:53.957Z,52.50
2018-03-06T07:33:22.261Z,50.45
2018-03-06T07:35:49.773Z,49.35
2018-03-06T07:38:17.276Z,50.45
2018-03-06T07:40:44.802Z,50.78
2018-03-06T07:43:12.464Z,50.55
2018-03-06T07:45:40.029Z,55.10
2018-03-06T07:48:08.305Z,56.70
2018-03-06T07:50:35.833Z,55.10
2018-03-06T07:53:03.340Z,54.47
2018-03-06T07:55:31.603Z,49.05
2018-03-06T07:57:59.157Z,45.83
2018-03-06T08:00:27.369Z,46.05
2018-03-06T08:02:54.893Z,47.70
2018-03-06T08:05:22.412Z,46.03
2018-03-06T08:07:50.512Z,44.95
2018-03-06T08:10:18.040Z,47.65
2018-03-06T08:12:45.550Z,46.17
2018-03-06T08:15:13.873Z,44.38
2018-03-06T08:17:41.378Z,45.17
2018-03-06T08:20:08.900Z,48.83
2018-03-06T08:22:36.413Z,46.53
2018-03-06T08:25:04.713Z,43.90
2018-03-06T08:27:32.224Z,50.90
2018-03-06T08:29:59.736Z,52.80
2018-03-06T08:32:27.260Z,51.45
2018-03-06T08:34:55.540Z,51.75
2018-03-06T08:37:23.070Z,52.50
2018-03-06T08:39:50.591Z,52.85
2018-03-06T08:42:18.116Z,53.63
2018-03-06T08:44:45.624Z,52.90
2018-03-06T08:47:13.136Z,50.95
2018-03-06T08:49:40.655Z,49.38
2018-03-06T08:52:08.179Z,51.40
2018-03-06T08:54:35.708Z,50.28
2018-03-06T08:57:03.215Z,50.00
2018-03-06T08:59:30.752Z,47.88
2018-03-06T09:01:59.164Z,49.88
2018-03-06T09:04:27.510Z,47.85
2018-03-06T09:06:55.808Z,51.70
2018-03-06T09:09:23.342Z,51.13
2018-03-06T09:11:53.832Z,50.90
2018-03-06T09:14:21.346Z,49.50
2018-03-06T09:16:48.886Z,50.33
2018-03-06T09:19:17.166Z,46.70
2018-03-06T09:21:45.488Z,45.88
2018-03-06T09:24:12.993Z,49.45
2018-03-06T09:26:40.489Z,48.70
2018-03-06T09:29:08.030Z,48.50
2018-03-06T09:31:38.065Z,46.13
2018-03-06T09:34:05.600Z,44.28
2018-03-06T09:36:33.910Z,44.10
2018-03-06T09:39:01.435Z,43.25
2018-03-06T09:41:30.302Z,44.08
2018-03-06T09:43:57.828Z,43.80
2018-03-06T09:46:25.338Z,36.85
2018-03-06T09:48:52.845Z,36.53
2018-03-06T09:51:20.395Z,39.45
2018-03-06T09:53:47.918Z,41.72
2018-03-06T09:56:15.456Z,38.90
2018-03-06T09:58:42.971Z,40.72
2018-03-06T10:01:10.496Z,42.50
2018-03-06T10:03:38.008Z,40.28
2018-03-06T10:06:05.503Z,37.33
2018-03-06T10:08:33.068Z,40.38
2018-03-06T10:11:00.560Z,38.38
2018-03-06T10:13:28.850Z,39.40
2018-03-06T10:15:56.365Z,36.20
2018-03-06T10:18:23.894Z,32.85
2018-03-06T10:20:51.404Z,35.35
2018-03-06T10:23:19.684Z,34.13
2018-03-06T10:25:47.961Z,33.40
2018-03-06T10:28:17.175Z,33.97
2018-03-06T10:30:44.675Z,35.53
2018-03-06T10:33:12.178Z,33.20
2018-03-06T10:35:40.473Z,34.33
2018-03-06T10:38:07.998Z,35.17
2018-03-06T10:40:35.521Z,33.35
2018-03-06T10:43:03.020Z,35.97
2018-03-06T10:45:30.530Z,34.72
2018-03-06T10:47:58.033Z,33.22
2018-03-06T10:50:25.560Z,32.85
2018-03-06T10:52:53.072Z,33.15
2018-03-06T10:55:21.363Z,34.33
2018-03-06T10:57:48.859Z,33.80
2018-03-06T11:00:16.362Z,34.08
2018-03-06T11:02:44.649Z,35.03
2018-03-06T11:05:12.930Z,33.28
2018-03-06T11:07:41.234Z,33.60
2018-03-06T11:10:08.727Z,31.33
2018-03-06T11:12:36.248Z,30.27
2018-03-06T11:15:03.748Z,32.15
2018-03-06T11:17:31.261Z,34.42
2018-03-06T11:19:59.688Z,34.97
2018-03-06T11:22:27.186Z,31.17
2018-03-06T11:24:54.720Z,34.70
2018-03-06T11:27:22.224Z,34.40
2018-03-06T11:29:49.785Z,32.75
2018-03-06T11:32:17.284Z,32.30
2018-03-06T11:34:44.915Z,29.33
2018-03-06T11:37:12.452Z,29.52
2018-03-06T11:39:42.277Z,34.00
2018-03-06T11:42:09.797Z,30.30
2018-03-06T11:44:38.129Z,32.35
2018-03-06T11:47:05.649Z,27.08
2018-03-06T11:49:33.923Z,28.65
2018-03-06T11:52:02.229Z,30.25
2018-03-06T11:54:29.752Z,29.77
2018-03-06T11:56:58.067Z,30.62
2018-03-06T11:59:25.593Z,29.08
2018-03-06T12:01:53.921Z,28.83
2018-03-06T12:04:21.415Z,30.77
2018-03-06T12:06:48.951Z,28.83
2018-03-06T12:09:16.465Z,29.70
2018-03-06T12:11:44.187Z,28.45
2018-03-06T12:14:11.707Z,26.12
2018-03-06T12:16:39.235Z,27.55
2018-03-06T12:19:07.539Z,28.15
2018-03-06T12:21:35.281Z,25.00
2018-03-06T12:24:03.702Z,23.67
2018-03-06T12:26:31.221Z,24.80
2018-03-06T12:28:59.529Z,24.10
2018-03-06T12:31:27.042Z,26.20
2018-03-06T12:33:54.569Z,27.10
2018-03-06T12:36:22.080Z,26.45
2018-03-06T12:38:50.354Z,25.80
2018-03-06T12:41:18.656Z,29.90
2018-03-06T12:43:46.185Z,28.67
2018-03-06T12:46:14.482Z,25.60
2018-03-06T12:48:42.753Z,29.80
2018-03-06T12:51:11.050Z,26.42
2018-03-06T12:53:38.561Z,27.25
2018-03-06T12:56:06.085Z,26.60
2018-03-06T12:58:33.618Z,25.05
2018-03-06T13:01:01.154Z,26.37
2018-03-06T13:03:29.433Z,25.02
2018-03-06T13:05:57.712Z,23.52
2018-03-06T13:08:26.012Z,24.08
2018-03-06T13:10:53.509Z,24.00
2018-03-06T13:13:21.037Z,22.05
2018-03-06T13:15:48.608Z,24.55
2018-03-06T13:18:16.137Z,21.42
2018-03-06T13:20:43.676Z,22.92
2018-03-06T13:23:11.232Z,19.80
2018-03-06T13:25:38.749Z,20.83
2018-03-06T13:28:06.277Z,21.80
2018-03-06T13:30:34.548Z,19.92
2018-03-06T13:33:02.826Z,21.00
2018-03-06T13:35:31.134Z,18.83
2018-03-06T13:37:58.658Z,18.87
2018-03-06T13:40:26.955Z,17.75
2018-03-06T13:42:54.481Z,20.85
2018-03-06T13:45:22.002Z,19.45
2018-03-06T13:47:49.525Z,21.17
2018-03-06T13:50:17.926Z,20.83
2018-03-06T13:52:46.712Z,20.48
2018-03-06T13:55:14.232Z,22.73
2018-03-06T13:57:41.736Z,23.05
2018-03-06T14:00:09.241Z,25.12
2018-03-06T14:02:36.757Z,25.23
2018-03-06T14:05:04.258Z,25.17
2018-03-06T14:07:31.834Z,27.80
2018-03-06T14:09:59.304Z,23.58
2018-03-06T14:12:26.829Z,27.65
2018-03-06T14:14:54.346Z,25.52
2018-03-06T14:17:21.859Z,25.95
2018-03-06T14:19:49.594Z,27.75
2018-03-06T14:22:17.108Z,28.08
2018-03-06T14:24:45.380Z,26.27
2018-03-06T14:27:12.888Z,26.25
2018-03-06T14:29:40.407Z,26.67
2018-03-06T14:32:08.678Z,27.95
2018-03-06T14:34:36.216Z,29.20
2018-03-06T14:37:03.724Z,26.85
2018-03-06T14:39:31.235Z,26.20
2018-03-06T14:41:58.752Z,26.67
2018-03-06T14:44:26.266Z,26.90
2018-03-06T14:46:53.764Z,27.35
2018-03-06T14:49:21.290Z,27.55
2018-03-06T14:51:49.566Z,25.92
2018-03-06T14:54:17.060Z,25.92
2018-03-06T14:56:44.579Z,27.95
2018-03-06T14:59:12.083Z,24.83
2018-03-06T15:01:39.609Z,27.83
2018-03-06T15:04:07.887Z,25.10
2018-03-06T15:06:35.430Z,24.00
2018-03-06T15:09:02.995Z,26.67
2018-03-06T15:11:30.516Z,24.35
2018-03-06T15:13:58.077Z,21.85
2018-03-06T15:16:25.603Z,24.73
2018-03-06T15:18:53.139Z,24.70
2018-03-06T15:21:20.651Z,24.55
2018-03-06T15:23:48.943Z,24.50
2018-03-06T15:26:16.473Z,22.23
2018-03-06T15:28:44.016Z,23.62
2018-03-06T15:31:12.390Z,23.35
2018-03-06T15:33:40.684Z,23.55
2018-03-06T15:36:08.193Z,24.98
2018-03-06T15:38:35.716Z,25.95
2018-03-06T15:41:03.219Z,23.95
2018-03-06T15:43:30.723Z,24.83
2018-03-06T15:45:58.794Z,24.77
2018-03-06T15:48:26.308Z,24.73
2018-03-06T15:50:53.846Z,25.37
2018-03-06T15:53:21.375Z,23.95
2018-03-06T15:55:48.975Z,22.52
2018-03-06T15:58:16.484Z,24.02
2018-03-06T16:00:44.767Z,22.95
2018-03-06T16:03:13.039Z,24.77
2018-03-06T16:05:41.303Z,24.87
2018-03-06T16:08:09.596Z,21.62
2018-03-06T16:10:37.903Z,22.95
2018-03-06T16:13:05.426Z,23.00
2018-03-06T16:15:33.710Z,22.77
2018-03-06T16:18:01.998Z,23.10
2018-03-06T16:20:30.542Z,23.85
2018-03-06T16:22:58.089Z,24.75
2018-03-06T16:25:25.597Z,24.87
2018-03-06T16:27:53.123Z,25.48
2018-03-06T16:30:20.635Z,23.33
2018-03-06T16:32:48.151Z,23.60
2018-03-06T16:35:15.690Z,24.42
2018-03-06T16:37:43.199Z,24.60
2018-03-06T16:40:11.496Z,22.58
2018-03-06T16:42:38.995Z,23.00
2018-03-06T16:45:06.607Z,24.15
2018-03-06T16:47:34.117Z,23.08
2018-03-06T16:50:01.640Z,25.88
2018-03-06T16:52:29.208Z,24.67
2018-03-06T16:54:56.718Z,22.75
2018-03-06T16:57:25.012Z,25.25
2018-03-06T16:59:53.314Z,24.25
2018-03-06T17:02:20.982Z,25.45
2018-03-06T17:04:48.484Z,23.45
2018-03-06T17:07:16.011Z,24.12
2018-03-06T17:09:43.531Z,24.12
2018-03-06T17:12:12.665Z,22.62
2018-03-06T17:14:40.199Z,22.35
2018-03-06T17:17:07.713Z,23.05
2018-03-06T17:19:35.212Z,23.52
2018-03-06T17:22:03.478Z,22.92
2018-03-06T17:24:31.758Z,23.38
2018-03-06T17:27:00.024Z,22.05
2018-03-06T17:29:28.313Z,22.42
2018-03-06T17:31:56.580Z,20.60
2018-03-06T17:34:24.862Z,22.98
2018-03-06T17:36:53.804Z,22.80
2018-03-06T17:39:21.343Z,22.27
2018-03-06T17:41:48.835Z,22.25
2018-03-06T17:44:16.367Z,21.75
2018-03-06T17:46:43.880Z,22.25
2018-03-06T17:49:11.372Z,22.42
2018-03-06T17:51:38.892Z,24.52
2018-03-06T17:54:06.395Z,23.38
2018-03-06T17:56:33.909Z,23.85
2018-03-06T17:59:01.409Z,21.83
2018-03-06T18:01:28.929Z,22.00
2018-03-06T18:03:56.433Z,22.42
2018-03-06T18:06:23.951Z,21.45
2018-03-06T18:08:51.450Z,20.77
2018-03-06T18:11:18.964Z,21.15
2018-03-06T18:13:46.471Z,20.75
2018-03-06T18:16:14.029Z,19.12
2018-03-06T18:18:41.557Z,20.05
2018-03-06T18:21:09.938Z,20.23
2018-03-06T18:23:37.419Z,18.50
2018-03-06T18:26:05.680Z,19.08
2018-03-06T18:28:33.960Z,17.55
2018-03-06T18:31:02.233Z,19.27
2018-03-06T18:33:30.530Z,18.65
2018-03-06T18:35:58.789Z,19.65
2018-03-06T18:38:27.073Z,20.88
2018-03-06T18:40:55.331Z,18.33
2018-03-06T18:43:22.818Z,17.62
2018-03-06T18:45:51.092Z,17.90
2018-03-06T18:48:19.358Z,15.60
2018-03-06T18:50:59.478Z,16.02
2018-03-06T18:53:26.999Z,17.02
2018-03-06T18:55:54.523Z,14.68
2018-03-06T18:58:22.041Z,16.83
2018-03-06T19:01:02.323Z,17.27
2018-03-06T19:03:41.554Z,15.40
2018-03-06T19:06:20.875Z,16.55
2018-03-06T19:08:48.373Z,15.13
2018-03-06T19:11:15.885Z,14.80
2018-03-06T19:13:44.177Z,15.48
2018-03-06T19:16:11.684Z,17.73
2018-03-06T19:18:39.970Z,16.23
2018-03-06T19:21:07.476Z,17.48
2018-03-06T19:23:34.983Z,17.60
2018-03-06T19:26:03.252Z,16.83
2018-03-06T19:28:31.540Z,16.92
2018-03-06T19:30:59.053Z,17.50
2018-03-06T19:33:26.554Z,18.95
2018-03-06T19:35:54.079Z,17.00
2018-03-06T19:38:21.636Z,17.80
2018-03-06T19:40:49.145Z,16.85
2018-03-06T19:43:16.660Z,17.33
2018-03-06T19:45:44.227Z,15.77
2018-03-06T19:48:11.726Z,15.27
2018-03-06T19:50:39.258Z,13.50
2018-03-06T19:53:06.762Z,14.50
2018-03-06T19:55:34.278Z,14.40
2018-03-06T19:58:02.566Z,13.75
2018-03-06T20:00:31.079Z,14.23
2018-03-06T20:02:58.608Z,14.63
2018-03-06T20:05:26.884Z,15.32
2018-03-06T20:07:55.172Z,15.65
2018-03-06T20:10:23.432Z,17.00
2018-03-06T20:12:51.720Z,17.80
2018-03-06T20:15:19.994Z,18.12
2018-03-06T20:17:48.289Z,16.73
2018-03-06T20:20:15.801Z,16.12
2018-03-06T20:22:43.374Z,18.30
2018-03-06T20:25:16.737Z,17.23
2018-03-06T20:27:44.278Z,15.95
2018-03-06T20:30:17.484Z,17.17
2018-03-06T20:32:50.771Z,16.70
2018-03-06T20:35:18.273Z,18.17
2018-03-06T20:37:45.773Z,16.62
2018-03-06T20:40:18.805Z,16.37
2018-03-06T20:42:46.295Z,16.20
2018-03-06T20:45:13.808Z,16.30
2018-03-06T20:47:41.308Z,16.33
2018-03-06T20:50:08.820Z,18.40
2018-03-06T20:52:42.006Z,18.05
2018-03-06T20:55:11.208Z,19.75
2018-03-06T20:57:38.702Z,18.37
2018-03-06T21:00:06.226Z,17.70
2018-03-06T21:02:33.748Z,18.27
2018-03-06T21:05:02.028Z,19.75
2018-03-06T21:07:30.294Z,19.98
2018-03-06T21:09:58.812Z,19.30
2018-03-06T21:12:26.320Z,19.73
2018-03-06T21:14:53.811Z,18.83
2018-03-06T21:17:22.094Z,19.15
2018-03-06T21:19:50.352Z,17.90
2018-03-06T21:22:17.860Z,17.58
2018-03-06T21:24:45.352Z,18.67
2018-03-06T21:27:12.868Z,19.55
2018-03-06T21:29:40.465Z,18.98
2018-03-06T21:32:07.976Z,18.30
2018-03-06T21:34:35.481Z,19.40
2018-03-06T21:37:02.989Z,18.40
2018-03-06T21:39:31.271Z,21.80
2018-03-06T21:41:58.785Z,19.10
2018-03-06T21:44:26.300Z,21.70
2018-03-06T21:46:53.798Z,21.42
2018-03-06T21:49:21.315Z,19.87
2018-03-06T21:51:48.804Z,21.08
2018-03-06T21:54:16.307Z,21.12
2018-03-06T21:56:44.576Z,20.62
2018-03-06T21:59:12.095Z,21.83
2018-03-06T22:01:39.593Z,21.10
2018-03-06T22:04:07.084Z,21.20
2018-03-06T22:06:34.598Z,20.95
2018-03-06T22:09:02.092Z,22.20
2018-03-06T22:11:30.386Z,21.87
2018-03-06T22:13:57.885Z,21.48
2018-03-06T22:16:25.399Z,20.77
2018-03-06T22:18:52.896Z,22.55
2018-03-06T22:21:20.407Z,22.30
2018-03-06T22:23:48.748Z,21.37
2018-03-06T22:26:16.382Z,20.95
2018-03-06T22:28:44.155Z,19.92
2018-03-06T22:31:11.754Z,21.08
2018-03-06T22:33:40.097Z,18.75
2018-03-06T22:36:07.696Z,21.20
2018-03-06T22:38:35.339Z,19.67
2018-03-06T22:41:02.984Z,19.62
2018-03-06T22:43:30.597Z,18.08
2018-03-06T22:45:58.193Z,18.67
2018-03-06T22:48:25.711Z,16.17
2018-03-06T22:50:54.001Z,16.62
2018-03-06T22:53:22.267Z,17.37
2018-03-06T22:55:50.542Z,15.82
2018-03-06T22:58:18.803Z,15.90
2018-03-06T23:00:46.320Z,15.48
2018-03-06T23:03:13.815Z,15.68
2018-03-06T23:05:41.338Z,15.63
2018-03-06T23:08:08.844Z,13.95
2018-03-06T23:10:36.352Z,15.50
2018-03-06T23:13:03.876Z,14.43
2018-03-06T23:15:32.127Z,14.73
2018-03-06T23:17:59.644Z,15.23
2018-03-06T23:20:27.137Z,15.00
2018-03-06T23:22:54.660Z,13.55
2018-03-06T23:25:22.156Z,12.82
2018-03-06T23:27:49.687Z,12.40
2018-03-06T23:30:17.189Z,12.00
2018-03-06T23:32:44.735Z,12.60
2018-03-06T23:35:12.310Z,9.95
2018-03-06T23:37:39.862Z,11.77
2018-03-06T23:40:07.432Z,10.13
2018-03-06T23:42:34.978Z,10.68
2018-03-06T23:45:02.549Z,9.90
2018-03-06T23:47:30.335Z,9.40
2018-03-06T23:49:58.672Z,7.93
2018-03-06T23:52:26.216Z,8.00
2018-03-06T23:54:53.781Z,8.93
2018-03-06T23:57:21.324Z,8.27
2018-03-06T23:59:48.858Z,8.00
